• Join FlightAware (Why Join?)
  • Login
  • US Flag 
07:47PM EDT


 

Airport Tracker/Info


-or-


 

Live Flight TrackerFlight Track Log ✈ EJA839 ✈ 28-Apr-2013 ✈ KSUA - KLOM

Flight Track Log - Related Links

Times and Time Zones

All times are in EDT time to prevent confusion due to time zone crossing. See the EJA839 flight status page for this flight to view local times or setup timezone preferences in your user account.

Time Position Orientation Groundspeed Altitude Reporting Facility
EDT Latitude Longitude Course Direction KTS MPH feet Rate Location/Type
03:46PM 27.1703 -80.1814 348° North 215 247 1,700  Level Miami Center
03:47PM 27.2264 -80.1947 348° North 258 297 3,600 1,800 Climbing Miami Center
03:48PM 27.2394 -80.2697 281° West 280 322 5,400 1,800 Climbing Miami Center
03:49PM 27.2986 -80.3275 319° Northwest 270 311 7,300 2,280 Climbing Miami Center
03:50PM 27.3742 -80.3883 324° Northwest 293 337 10,000 2,400 Climbing Miami Center
03:51PM 27.4439 -80.4442 325° Northwest 309 356 12,200 2,220 Climbing Miami Center
03:52PM 27.5156 -80.5028 324° Northwest 314 361 14,500 2,220 Climbing Miami Center
03:53PM 27.5725 -80.5656 316° Northwest 314 361 16,700 2,100 Climbing Miami Center
03:54PM 27.6372 -80.6403 314° West 320 368 18,700 2,100 Climbing Miami Center
03:55PM 27.7108 -80.6989 325° Northwest 325 374 20,900 2,040 Climbing Miami Center
03:56PM 27.7906 -80.7578 327° Northwest 325 374 22,800 1,800 Climbing Miami Center
03:57PM 27.8706 -80.8169 327° Northwest 335 386 24,600 1,800 Climbing Miami Center
03:58PM 27.9500 -80.8786 326° Northwest 346 398 26,500 1,620 Climbing Miami Center
03:59PM 28.0319 -80.9403 326° Northwest 346 398 27,900 1,320 Climbing Miami Center
04:00PM 28.1133 -81.0067 324° Northwest 352 405 29,200 1,380 Climbing Miami Center
04:01PM 28.2125 -81.0408 343° North 352 405 30,700 1,500 Climbing Miami Center
04:02PM 28.3081 -81.0586 351° North 350 403 32,300 1,560 Climbing Miami Center
04:03PM 28.4056 -81.0811 349° North 350 403 33,900 1,320 Climbing Miami Center
04:04PM 28.5031 -81.1014 350° North 350 403 35,000 1,080 Climbing Miami Center
04:05PM 28.6025 -81.1242 349° North 355 409 36,100 1,080 Climbing Miami Center
04:05PM 28.6744 -81.1417 348° North 353 406 36,800 1,080 Climbing Jacksonville Center
04:06PM 28.7747 -81.1633 349° North 366 421 37,900 1,020 Climbing Jacksonville Center
04:07PM 28.8772 -81.1853 349° North 366 421 38,900 540 Climbing Jacksonville Center
04:08PM 28.9778 -81.2075 349° North 371 427 39,000  Climbing Jacksonville Center
04:09PM 29.0844 -81.2317 349° North 377 434 39,000  Level Jacksonville Center
04:10PM 29.1914 -81.2561 349° North 377 434 39,000  Level Jacksonville Center
04:11PM 29.2939 -81.2781 349° North 377 434 39,000 420 Level Jacksonville Center
04:12PM 29.3964 -81.3003 349° North 372 428 39,900 900 Climbing Jacksonville Center
04:13PM 29.4967 -81.3106 355° North 372 428 40,800 900 Climbing Jacksonville Center
04:14PM 29.5944 -81.2708 19° North 361 415 41,700 780 Climbing Jacksonville Center
04:15PM 29.6961 -81.2261 21° North 375 432 42,400 600 Climbing Jacksonville Center
04:16PM 29.8000 -81.1836 20° North 381 438 42,900  Climbing Jacksonville Center
04:17PM 29.9036 -81.1411 20° North 386 444 42,400  Descending Jacksonville Center
04:18PM 30.0136 -81.0936 21° North 391 450 43,000 300 Climbing Jacksonville Center
04:19PM 30.1175 -81.0531 19° North 414 476 43,000  Level Jacksonville Center
04:20PM 30.2317 -81.0053 20° North 429 494 43,000  Level Jacksonville Center
04:21PM 30.3478 -80.9597 19° North 434 499 43,000  Level Jacksonville Center
04:22PM 30.4642 -80.9092 21° North 439 505 43,000  Level Jacksonville Center
04:23PM 30.5781 -80.8633 19° North 439 505 43,000  Level Jacksonville Center
04:24PM 30.6942 -80.8150 20° North 439 505 43,000  Level Jacksonville Center
04:25PM 30.8061 -80.7667 20° North 439 505 43,000  Level Jacksonville Center
04:26PM 30.9244 -80.7203 19° North 439 505 43,000  Level Jacksonville Center
04:27PM 31.0342 -80.6717 21° North 433 498 43,000  Level Jacksonville Center
04:28PM 31.1525 -80.6228 19° North 433 498 43,000  Level Jacksonville Center
04:29PM 31.2686 -80.5786 18° North 433 498 43,000  Level Jacksonville Center
04:30PM 31.3803 -80.5272 21° North 427 491 43,000  Level Jacksonville Center
04:31PM 31.4942 -80.4806 19° North 432 497 43,000  Level Jacksonville Center
04:32PM 31.6061 -80.4336 20° North 427 491 43,000  Level Jacksonville Center
04:34PM 31.8339 -80.3372 20° North 427 491 43,000  Level Jacksonville Center
04:35PM 31.9475 -80.2850 21° North 427 491 43,000  Level Jacksonville Center
04:36PM 32.0594 -80.2403 19° North 427 491 43,000  Level Jacksonville Center
04:37PM 32.1772 -80.1878 21° North 427 491 43,000  Level Jacksonville Center
04:38PM 32.2892 -80.1403 20° North 427 491 43,000  Level Jacksonville Center
04:39PM 32.4006 -80.0900 21° North 427 491 43,000  Level Jacksonville Center
04:40PM 32.5144 -80.0397 20° North 427 491 43,000  Level Jacksonville Center
04:41PM 32.6303 -79.9917 19° North 427 491 43,000  Level Jacksonville Center
04:42PM 32.7417 -79.9411 21° North 427 491 43,000  Level Jacksonville Center
04:43PM 32.8553 -79.8906 20° North 427 491 43,000  Level Jacksonville Center
04:44PM 32.9689 -79.8422 20° North 427 491 43,000  Level Jacksonville Center
04:45PM 33.0950 -79.7858 21° North 427 491 43,000  Level Jacksonville Center
04:46PM 33.2064 -79.7372 20° North 427 491 43,000  Level Jacksonville Center
04:47PM 33.3178 -79.6886 20° North 422 486 43,000  Level Jacksonville Center
04:48PM 33.4314 -79.6372 21° North 427 491 43,000  Level Jacksonville Center
04:49PM 33.5447 -79.5883 20° North 427 491 43,000  Level Jacksonville Center
04:50PM 33.6561 -79.5392 20° North 427 491 43,000  Level Jacksonville Center
04:51PM 33.7656 -79.4900 20° North 427 491 43,000  Level Jacksonville Center
04:52PM 33.8769 -79.4406 20° North 427 491 43,000  Level Jacksonville Center
04:53PM 33.9842 -79.3964 19° North 421 484 43,000  Level Jacksonville Center
04:55PM 34.1619 -79.3139 21° North 422 486 43,000  Level Washington Center
04:56PM 34.2892 -79.2492 23° Northeast 440 506 43,000  Level Washington Center
04:57PM 34.3994 -79.1861 25° Northeast 440 506 43,000  Level Washington Center
04:58PM 34.5097 -79.1256 24° Northeast 435 501 43,000  Level Washington Center
04:59PM 34.6181 -79.0619 26° Northeast 429 494 43,000  Level Washington Center
05:00PM 34.7283 -78.9983 25° Northeast 429 494 43,000  Level Washington Center
05:01PM 34.8367 -78.9347 26° Northeast 429 494 43,000  Level Washington Center
05:02PM 34.9469 -78.8708 25° Northeast 429 494 43,000  Level Washington Center
05:03PM 35.0592 -78.8044 26° Northeast 429 494 43,000  Level Washington Center
05:04PM 35.1672 -78.7425 25° Northeast 429 494 43,000  Level Washington Center
05:05PM 35.2775 -78.6783 25° Northeast 429 494 43,000  Level Washington Center
05:06PM 35.3900 -78.6086 27° Northeast 435 501 43,000  Level Washington Center
05:07PM 35.4978 -78.5439 26° Northeast 430 495 43,000  Level Washington Center
05:08PM 35.6081 -78.4789 26° Northeast 430 495 43,000  Level Washington Center
05:09PM 35.7094 -78.4211 25° Northeast 435 501 43,000 -120 Level Washington Center
05:10PM 35.8175 -78.3558 26° Northeast 435 501 42,800 -840 Descending Washington Center
05:11PM 35.9233 -78.2928 26° Northeast 424 488 41,400 -1,500 Descending Washington Center
05:12PM 36.0269 -78.2322 25° Northeast 412 474 39,800 -1,620 Descending Washington Center
05:13PM 36.1242 -78.1711 27° Northeast 402 463 38,300 -1,560 Descending Washington Center
05:14PM 36.2339 -78.1078 25° Northeast 412 474 36,800 -1,500 Descending Washington Center
05:15PM 36.3439 -78.0392 27° Northeast 424 488 35,300 -1,500 Descending Washington Center
05:16PM 36.4517 -77.9703 27° Northeast 430 495 33,800 -1,200 Descending Washington Center
05:17PM 36.5636 -77.9039 25° Northeast 430 495 33,000 -1,020 Descending Washington Center
05:18PM 36.6756 -77.8242 30° Northeast 435 501 31,800 -1,200 Descending Washington Center
05:19PM 36.7836 -77.7367 33° Northeast 448 516 30,600 -1,380 Descending Washington Center
05:20PM 36.8936 -77.6514 32° Northeast 461 531 29,100 -1,560 Descending Washington Center
05:21PM 37.0014 -77.5658 32° Northeast 461 531 27,600 -1,380 Descending Washington Center
05:22PM 37.1072 -77.4800 33° Northeast 461 531 26,400 -840 Descending Washington Center
05:23PM 37.2128 -77.3939 33° Northeast 461 531 25,900 -780 Descending Washington Center
05:24PM 37.3161 -77.3103 33° Northeast 454 522 24,900 -1,020 Descending Washington Center
05:25PM 37.4175 -77.2261 33° Northeast 442 509 23,900 -960 Descending Washington Center
05:26PM 37.5167 -77.1472 32° Northeast 437 503 23,000 -480 Descending Washington Center
05:27PM 37.6178 -77.0625 34° Northeast 432 497 23,000  Level Washington Center
05:28PM 37.7167 -76.9806 33° Northeast 426 490 23,000  Level Washington Center
05:29PM 37.8178 -76.8983 33° Northeast 426 490 23,000 -480 Level Washington Center
05:30PM 37.9189 -76.8158 33° Northeast 426 490 22,100 -1,140 Descending Washington Center
05:31PM 38.0194 -76.7594 24° Northeast 406 467 20,800 -1,380 Descending Washington Center
05:32PM 38.1242 -76.7031 23° Northeast 401 461 19,400 -1,380 Descending Washington Center
05:33PM 38.2247 -76.6489 23° Northeast 395 455 18,000 -1,320 Descending Washington Center
05:34PM 38.3211 -76.5972 23° Northeast 395 455 16,900 -1,320 Descending Washington Center
05:35PM 38.3928 -76.4950 48° Northeast 373 429 15,500 -1,320 Descending Washington Center
05:36PM 38.4583 -76.3925 51° Northeast 367 422 14,300 -1,200 Descending Washington Center
05:37PM 38.5214 -76.2922 51° Northeast 367 422 13,200 -660 Descending Washington Center
05:38PM 38.5867 -76.1947 49° Northeast 367 422 13,000 -120 Descending Washington Center
05:39PM 38.6581 -76.0756 52° Northeast 372 428 13,000  Level Washington Center
05:40PM 38.7314 -75.9856 44° Northeast 367 422 13,000  Level Washington Center
05:41PM 38.8128 -75.9114 35° Northeast 356 410 13,000  Level Washington Center
05:42PM 38.8942 -75.8369 35° Northeast 356 410 13,000  Level Washington Center
05:43PM 38.9736 -75.7597 37° Northeast 356 410 13,000  Level Washington Center
05:44PM 39.0550 -75.6878 34° Northeast 356 410 13,000 -360 Level Washington Center
05:45PM 39.1508 -75.6667 10° North 340 391 12,300 -360 Descending Washington Center
05:47PM 39.3667 -75.6500 North 348 400 12,000 -420 Descending Philadelphia TRACON
05:48PM 39.4833 -75.6167 12° North 314 361 10,900 -1,260 Descending Philadelphia TRACON
05:49PM 39.5500 -75.6000 11° North 295 339 9,300 -1,500 Descending Philadelphia TRACON
05:50PM 39.6333 -75.5667 17° North 298 343 7,900 -1,140 Descending Philadelphia TRACON
05:51PM 39.7167 -75.5500 North 286 329 7,100 -840 Descending Philadelphia TRACON
05:52PM 39.8000 -75.5333 North 284 327 6,300 -1,020 Descending Philadelphia TRACON
05:53PM 39.8667 -75.5167 11° North 275 316 5,100 -1,260 Descending Philadelphia TRACON
05:54PM 39.9500 -75.5000 North 263 303 3,800 -1,080 Descending Philadelphia TRACON
05:55PM 40.0000 -75.4333 46° Northeast 215 247 3,000 -420 Descending Philadelphia TRACON
05:56PM 40.0333 -75.3667 57° Northeast 224 258 3,000  Level Philadelphia TRACON
05:57PM 40.0667 -75.3333 37° Northeast 225 259 3,100 60 Climbing Philadelphia TRACON